sensor_id;sensor_type;location;lat;lon;timestamp;temperature;humidity
22442;DHT22;11388;54.456;9.752;2022-12-07T00:02:04;3.60;99.90
22442;DHT22;11388;54.456;9.752;2022-12-07T00:04:30;3.50;99.90
22442;DHT22;11388;54.456;9.752;2022-12-07T00:06:56;3.60;99.90
22442;DHT22;11388;54.456;9.752;2022-12-07T00:09:22;3.60;99.90
22442;DHT22;11388;54.456;9.752;2022-12-07T00:11:50;3.60;99.90
22442;DHT22;11388;54.456;9.752;2022-12-07T00:14:16;3.50;99.90
22442;DHT22;11388;54.456;9.752;2022-12-07T00:16:43;3.60;99.90
22442;DHT22;11388;54.456;9.752;2022-12-07T00:19:19;3.50;99.90
22442;DHT22;11388;54.456;9.752;2022-12-07T00:21:48;3.50;99.90
22442;DHT22;11388;54.456;9.752;2022-12-07T00:24:14;3.60;99.90
22442;DHT22;11388;54.456;9.752;2022-12-07T00:26:41;3.60;99.90
22442;DHT22;11388;54.456;9.752;2022-12-07T00:29:14;3.60;99.90
22442;DHT22;11388;54.456;9.752;2022-12-07T00:31:40;3.60;99.90
22442;DHT22;11388;54.456;9.752;2022-12-07T00:34:09;3.70;99.90
22442;DHT22;11388;54.456;9.752;2022-12-07T00:36:37;3.80;99.90
22442;DHT22;11388;54.456;9.752;2022-12-07T00:39:03;3.80;99.90
22442;DHT22;11388;54.456;9.752;2022-12-07T00:41:29;3.80;99.90
22442;DHT22;11388;54.456;9.752;2022-12-07T00:43:55;3.80;99.90
22442;DHT22;11388;54.456;9.752;2022-12-07T00:46:21;3.70;99.90
22442;DHT22;11388;54.456;9.752;2022-12-07T00:48:48;3.80;99.90
22442;DHT22;11388;54.456;9.752;2022-12-07T00:51:16;3.80;99.90
22442;DHT22;11388;54.456;9.752;2022-12-07T00:53:56;3.70;99.90
22442;DHT22;11388;54.456;9.752;2022-12-07T00:56:27;3.70;99.90
22442;DHT22;11388;54.456;9.752;2022-12-07T00:58:53;3.60;99.90
22442;DHT22;11388;54.456;9.752;2022-12-07T01:01:20;3.60;99.90
22442;DHT22;11388;54.456;9.752;2022-12-07T01:03:51;3.60;99.90
22442;DHT22;11388;54.456;9.752;2022-12-07T01:06:18;3.70;99.90
22442;DHT22;11388;54.456;9.752;2022-12-07T01:08:44;3.70;99.90
22442;DHT22;11388;54.456;9.752;2022-12-07T01:11:16;3.60;99.90
22442;DHT22;11388;54.456;9.752;2022-12-07T01:13:43;3.50;99.90
22442;DHT22;11388;54.456;9.752;2022-12-07T01:16:11;3.40;99.90
22442;DHT22;11388;54.456;9.752;2022-12-07T01:18:39;3.30;99.90
22442;DHT22;11388;54.456;9.752;2022-12-07T01:23:33;3.30;99.90
22442;DHT22;11388;54.456;9.752;2022-12-07T01:26:01;3.10;99.90
22442;DHT22;11388;54.456;9.752;2022-12-07T01:28:28;3.10;99.90
22442;DHT22;11388;54.456;9.752;2022-12-07T01:31:14;3.10;99.90
22442;DHT22;11388;54.456;9.752;2022-12-07T01:33:42;3.00;99.90
22442;DHT22;11388;54.456;9.752;2022-12-07T01:36:20;3.10;99.90
22442;DHT22;11388;54.456;9.752;2022-12-07T01:38:47;3.10;99.90
22442;DHT22;11388;54.456;9.752;2022-12-07T01:41:14;3.30;99.90
22442;DHT22;11388;54.456;9.752;2022-12-07T01:49:42;3.50;99.90
22442;DHT22;11388;54.456;9.752;2022-12-07T01:52:30;3.40;99.90
22442;DHT22;11388;54.456;9.752;2022-12-07T01:55:06;3.40;99.90
22442;DHT22;11388;54.456;9.752;2022-12-07T01:57:34;3.40;99.90
22442;DHT22;11388;54.456;9.752;2022-12-07T02:00:03;3.30;99.90
22442;DHT22;11388;54.456;9.752;2022-12-07T02:02:33;3.30;99.90
22442;DHT22;11388;54.456;9.752;2022-12-07T02:05:00;3.20;99.90
22442;DHT22;11388;54.456;9.752;2022-12-07T02:07:27;3.10;99.90
22442;DHT22;11388;54.456;9.752;2022-12-07T02:09:53;3.10;99.90
22442;DHT22;11388;54.456;9.752;2022-12-07T02:12:22;3.00;99.90
22442;DHT22;11388;54.456;9.752;2022-12-07T02:14:50;3.00;99.90
22442;DHT22;11388;54.456;9.752;2022-12-07T02:17:32;3.00;99.90
22442;DHT22;11388;54.456;9.752;2022-12-07T02:20:31;3.00;99.90
22442;DHT22;11388;54.456;9.752;2022-12-07T02:28:27;2.80;99.90
22442;DHT22;11388;54.456;9.752;2022-12-07T02:30:57;2.80;99.90
22442;DHT22;11388;54.456;9.752;2022-12-07T02:33:28;2.70;99.90
22442;DHT22;11388;54.456;9.752;2022-12-07T02:36:12;2.70;99.90
22442;DHT22;11388;54.456;9.752;2022-12-07T02:39:34;2.70;99.90
22442;DHT22;11388;54.456;9.752;2022-12-07T02:41:44;2.60;99.90
22442;DHT22;11388;54.456;9.752;2022-12-07T02:44:14;2.60;99.90
22442;DHT22;11388;54.456;9.752;2022-12-07T02:46:51;2.60;99.90
22442;DHT22;11388;54.456;9.752;2022-12-07T02:49:19;2.60;99.90
22442;DHT22;11388;54.456;9.752;2022-12-07T02:51:47;2.50;99.90
22442;DHT22;11388;54.456;9.752;2022-12-07T02:54:22;2.50;99.90
22442;DHT22;11388;54.456;9.752;2022-12-07T02:57:45;2.50;99.90
22442;DHT22;11388;54.456;9.752;2022-12-07T03:08:02;2.40;99.90
22442;DHT22;11388;54.456;9.752;2022-12-07T03:10:38;2.30;99.90
22442;DHT22;11388;54.456;9.752;2022-12-07T03:16:37;2.20;99.90
22442;DHT22;11388;54.456;9.752;2022-12-07T03:19:12;2.10;99.90
22442;DHT22;11388;54.456;9.752;2022-12-07T03:21:44;2.20;99.90
22442;DHT22;11388;54.456;9.752;2022-12-07T03:24:19;2.20;99.90
22442;DHT22;11388;54.456;9.752;2022-12-07T03:26:52;2.20;99.90
22442;DHT22;11388;54.456;9.752;2022-12-07T03:29:37;2.20;99.90
22442;DHT22;11388;54.456;9.752;2022-12-07T03:32:25;2.10;99.90
22442;DHT22;11388;54.456;9.752;2022-12-07T03:38:40;2.20;99.90
22442;DHT22;11388;54.456;9.752;2022-12-07T03:41:05;2.20;99.90
22442;DHT22;11388;54.456;9.752;2022-12-07T03:43:45;2.30;99.90
22442;DHT22;11388;54.456;9.752;2022-12-07T03:51:58;2.20;99.90
22442;DHT22;11388;54.456;9.752;2022-12-07T03:54:41;2.10;99.90
22442;DHT22;11388;54.456;9.752;2022-12-07T03:57:10;2.10;99.90
22442;DHT22;11388;54.456;9.752;2022-12-07T03:59:38;2.20;99.90
22442;DHT22;11388;54.456;9.752;2022-12-07T04:02:06;2.00;99.90
22442;DHT22;11388;54.456;9.752;2022-12-07T04:04:33;2.10;99.90
22442;DHT22;11388;54.456;9.752;2022-12-07T04:06:58;2.10;99.90
22442;DHT22;11388;54.456;9.752;2022-12-07T04:09:25;2.10;99.90
22442;DHT22;11388;54.456;9.752;2022-12-07T04:11:50;2.10;99.90
22442;DHT22;11388;54.456;9.752;2022-12-07T04:14:16;2.00;99.90
22442;DHT22;11388;54.456;9.752;2022-12-07T04:19:11;2.10;99.90
22442;DHT22;11388;54.456;9.752;2022-12-07T04:21:37;2.10;99.90
22442;DHT22;11388;54.456;9.752;2022-12-07T04:24:04;2.10;99.90
22442;DHT22;11388;54.456;9.752;2022-12-07T04:26:29;2.00;99.90
22442;DHT22;11388;54.456;9.752;2022-12-07T04:28:55;2.10;99.90
22442;DHT22;11388;54.456;9.752;2022-12-07T04:31:21;2.10;99.90
22442;DHT22;11388;54.456;9.752;2022-12-07T04:33:47;2.10;99.90
22442;DHT22;11388;54.456;9.752;2022-12-07T04:36:15;2.00;99.90
22442;DHT22;11388;54.456;9.752;2022-12-07T04:38:41;1.90;99.90
22442;DHT22;11388;54.456;9.752;2022-12-07T04:41:08;1.90;99.90
22442;DHT22;11388;54.456;9.752;2022-12-07T04:43:34;2.00;99.90
22442;DHT22;11388;54.456;9.752;2022-12-07T04:46:00;2.00;99.90
22442;DHT22;11388;54.456;9.752;2022-12-07T04:48:26;2.00;99.90
22442;DHT22;11388;54.456;9.752;2022-12-07T04:50:52;1.90;99.90
22442;DHT22;11388;54.456;9.752;2022-12-07T04:53:18;1.80;99.90
22442;DHT22;11388;54.456;9.752;2022-12-07T04:55:44;1.80;99.90
22442;DHT22;11388;54.456;9.752;2022-12-07T04:58:11;1.80;99.90
22442;DHT22;11388;54.456;9.752;2022-12-07T05:00:36;2.00;99.90
22442;DHT22;11388;54.456;9.752;2022-12-07T05:05:52;2.00;99.90
22442;DHT22;11388;54.456;9.752;2022-12-07T05:08:17;2.00;99.90
22442;DHT22;11388;54.456;9.752;2022-12-07T05:10:43;1.90;99.90
22442;DHT22;11388;54.456;9.752;2022-12-07T05:13:24;1.90;99.90
22442;DHT22;11388;54.456;9.752;2022-12-07T06:42:31;1.60;99.90
22442;DHT22;11388;54.456;9.752;2022-12-07T06:45:02;1.70;99.90
22442;DHT22;11388;54.456;9.752;2022-12-07T06:47:37;1.70;99.90
22442;DHT22;11388;54.456;9.752;2022-12-07T07:06:41;1.70;99.90
22442;DHT22;11388;54.456;9.752;2022-12-07T07:09:26;1.70;99.90
22442;DHT22;11388;54.456;9.752;2022-12-07T07:12:16;1.70;99.90
22442;DHT22;11388;54.456;9.752;2022-12-07T07:15:05;1.70;99.90
22442;DHT22;11388;54.456;9.752;2022-12-07T07:21:14;1.60;99.90
22442;DHT22;11388;54.456;9.752;2022-12-07T07:23:48;1.50;99.90
22442;DHT22;11388;54.456;9.752;2022-12-07T07:26:20;1.60;99.90
22442;DHT22;11388;54.456;9.752;2022-12-07T07:29:10;1.60;99.90
22442;DHT22;11388;54.456;9.752;2022-12-07T07:34:57;1.70;99.90
22442;DHT22;11388;54.456;9.752;2022-12-07T07:38:03;1.80;99.90
22442;DHT22;11388;54.456;9.752;2022-12-07T07:44:17;1.90;99.90
22442;DHT22;11388;54.456;9.752;2022-12-07T07:47:17;1.90;99.90
22442;DHT22;11388;54.456;9.752;2022-12-07T07:50:01;1.80;99.90
22442;DHT22;11388;54.456;9.752;2022-12-07T07:56:14;1.90;99.90
22442;DHT22;11388;54.456;9.752;2022-12-07T08:08:51;1.80;99.90
22442;DHT22;11388;54.456;9.752;2022-12-07T08:11:20;1.90;99.90
22442;DHT22;11388;54.456;9.752;2022-12-07T08:24:00;2.00;99.90
22442;DHT22;11388;54.456;9.752;2022-12-07T08:29:58;2.00;99.90
22442;DHT22;11388;54.456;9.752;2022-12-07T08:32:32;2.00;99.90
22442;DHT22;11388;54.456;9.752;2022-12-07T08:35:08;2.00;99.90
22442;DHT22;11388;54.456;9.752;2022-12-07T08:37:40;2.00;99.90
22442;DHT22;11388;54.456;9.752;2022-12-07T08:40:18;2.00;99.90
22442;DHT22;11388;54.456;9.752;2022-12-07T08:43:13;2.10;99.90
22442;DHT22;11388;54.456;9.752;2022-12-07T08:46:13;2.10;99.90
22442;DHT22;11388;54.456;9.752;2022-12-07T08:49:02;2.20;99.90
22442;DHT22;11388;54.456;9.752;2022-12-07T08:51:31;2.20;99.90
22442;DHT22;11388;54.456;9.752;2022-12-07T08:54:05;2.20;99.90
22442;DHT22;11388;54.456;9.752;2022-12-07T08:56:50;2.40;99.90
22442;DHT22;11388;54.456;9.752;2022-12-07T08:59:49;2.30;99.90
22442;DHT22;11388;54.456;9.752;2022-12-07T09:02:24;2.40;99.90
22442;DHT22;11388;54.456;9.752;2022-12-07T09:05:08;2.50;99.90
22442;DHT22;11388;54.456;9.752;2022-12-07T09:10:56;2.60;99.90
22442;DHT22;11388;54.456;9.752;2022-12-07T09:13:38;2.70;99.90
22442;DHT22;11388;54.456;9.752;2022-12-07T09:16:20;2.60;99.90
22442;DHT22;11388;54.456;9.752;2022-12-07T09:19:17;2.60;99.90
22442;DHT22;11388;54.456;9.752;2022-12-07T09:21:48;2.50;99.90
22442;DHT22;11388;54.456;9.752;2022-12-07T09:27:28;2.50;99.90
22442;DHT22;11388;54.456;9.752;2022-12-07T09:30:04;2.40;99.90
22442;DHT22;11388;54.456;9.752;2022-12-07T09:35:26;2.50;99.90
22442;DHT22;11388;54.456;9.752;2022-12-07T09:38:02;2.60;99.90
22442;DHT22;11388;54.456;9.752;2022-12-07T09:40:47;2.60;99.90
22442;DHT22;11388;54.456;9.752;2022-12-07T09:43:19;2.70;99.90
22442;DHT22;11388;54.456;9.752;2022-12-07T09:45:52;2.80;99.90
22442;DHT22;11388;54.456;9.752;2022-12-07T09:48:38;2.70;99.90
22442;DHT22;11388;54.456;9.752;2022-12-07T09:51:22;2.70;99.90
22442;DHT22;11388;54.456;9.752;2022-12-07T09:54:16;2.80;99.90
22442;DHT22;11388;54.456;9.752;2022-12-07T09:56:43;2.80;99.90
22442;DHT22;11388;54.456;9.752;2022-12-07T09:59:23;2.80;99.90
22442;DHT22;11388;54.456;9.752;2022-12-07T10:08:21;2.70;99.90
22442;DHT22;11388;54.456;9.752;2022-12-07T10:10:54;2.90;99.90
22442;DHT22;11388;54.456;9.752;2022-12-07T10:13:49;3.00;99.90
22442;DHT22;11388;54.456;9.752;2022-12-07T10:16:30;3.00;99.90
22442;DHT22;11388;54.456;9.752;2022-12-07T10:19:21;3.10;99.90
22442;DHT22;11388;54.456;9.752;2022-12-07T10:22:10;3.20;99.90
22442;DHT22;11388;54.456;9.752;2022-12-07T10:24:40;3.20;99.90
22442;DHT22;11388;54.456;9.752;2022-12-07T10:34:33;3.20;99.90
22442;DHT22;11388;54.456;9.752;2022-12-07T10:49:51;3.30;99.90
22442;DHT22;11388;54.456;9.752;2022-12-07T10:52:42;3.40;99.90
22442;DHT22;11388;54.456;9.752;2022-12-07T11:00:24;3.60;99.90
22442;DHT22;11388;54.456;9.752;2022-12-07T11:11:34;3.60;99.90
22442;DHT22;11388;54.456;9.752;2022-12-07T11:24:16;3.70;99.90
22442;DHT22;11388;54.456;9.752;2022-12-07T11:35:55;4.00;99.90
22442;DHT22;11388;54.456;9.752;2022-12-07T11:38:30;3.90;99.90
22442;DHT22;11388;54.456;9.752;2022-12-07T11:41:02;3.90;99.90
22442;DHT22;11388;54.456;9.752;2022-12-07T11:46:15;3.90;99.90
22442;DHT22;11388;54.456;9.752;2022-12-07T11:48:57;3.80;99.90
22442;DHT22;11388;54.456;9.752;2022-12-07T11:51:25;3.80;99.90
22442;DHT22;11388;54.456;9.752;2022-12-07T11:53:59;3.80;99.90
22442;DHT22;11388;54.456;9.752;2022-12-07T11:56:29;3.90;99.90
22442;DHT22;11388;54.456;9.752;2022-12-07T11:59:12;4.00;99.90
22442;DHT22;11388;54.456;9.752;2022-12-07T12:02:14;4.10;99.90
22442;DHT22;11388;54.456;9.752;2022-12-07T12:04:58;4.00;99.90
22442;DHT22;11388;54.456;9.752;2022-12-07T12:07:27;3.90;99.90
22442;DHT22;11388;54.456;9.752;2022-12-07T12:10:03;3.90;99.90
22442;DHT22;11388;54.456;9.752;2022-12-07T12:20:49;3.90;99.90
22442;DHT22;11388;54.456;9.752;2022-12-07T12:23:24;3.90;99.90
22442;DHT22;11388;54.456;9.752;2022-12-07T12:25:58;3.90;99.90
22442;DHT22;11388;54.456;9.752;2022-12-07T12:28:39;3.80;99.90
22442;DHT22;11388;54.456;9.752;2022-12-07T12:33:35;3.70;99.90
22442;DHT22;11388;54.456;9.752;2022-12-07T12:45:30;3.70;99.90
22442;DHT22;11388;54.456;9.752;2022-12-07T12:50:38;3.60;99.90
22442;DHT22;11388;54.456;9.752;2022-12-07T12:53:22;3.60;99.90
22442;DHT22;11388;54.456;9.752;2022-12-07T12:56:05;3.70;99.90
22442;DHT22;11388;54.456;9.752;2022-12-07T12:58:36;3.60;99.90
22442;DHT22;11388;54.456;9.752;2022-12-07T13:01:40;3.60;99.90
22442;DHT22;11388;54.456;9.752;2022-12-07T13:07:11;3.40;99.90
22442;DHT22;11388;54.456;9.752;2022-12-07T13:09:42;3.40;99.90
22442;DHT22;11388;54.456;9.752;2022-12-07T13:12:14;3.40;99.90
22442;DHT22;11388;54.456;9.752;2022-12-07T13:14:59;3.30;99.90
22442;DHT22;11388;54.456;9.752;2022-12-07T13:20:00;3.30;99.90
22442;DHT22;11388;54.456;9.752;2022-12-07T13:25:01;3.20;99.90
22442;DHT22;11388;54.456;9.752;2022-12-07T13:27:29;3.20;99.90
22442;DHT22;11388;54.456;9.752;2022-12-07T13:29:56;3.10;99.90
22442;DHT22;11388;54.456;9.752;2022-12-07T13:32:27;3.20;99.90
22442;DHT22;11388;54.456;9.752;2022-12-07T13:34:53;3.20;99.90
22442;DHT22;11388;54.456;9.752;2022-12-07T13:37:25;3.20;99.90
22442;DHT22;11388;54.456;9.752;2022-12-07T13:39:57;3.20;99.90
22442;DHT22;11388;54.456;9.752;2022-12-07T13:42:31;3.10;99.90
22442;DHT22;11388;54.456;9.752;2022-12-07T13:44:59;3.10;99.90
22442;DHT22;11388;54.456;9.752;2022-12-07T13:47:36;3.10;99.90
22442;DHT22;11388;54.456;9.752;2022-12-07T13:50:25;2.90;99.90
22442;DHT22;11388;54.456;9.752;2022-12-07T13:52:59;2.80;99.90
22442;DHT22;11388;54.456;9.752;2022-12-07T13:55:26;2.80;99.90
22442;DHT22;11388;54.456;9.752;2022-12-07T13:57:54;2.90;99.90
22442;DHT22;11388;54.456;9.752;2022-12-07T14:00:25;2.80;99.90
22442;DHT22;11388;54.456;9.752;2022-12-07T14:03:00;2.80;99.90
22442;DHT22;11388;54.456;9.752;2022-12-07T14:05:31;2.80;99.90
22442;DHT22;11388;54.456;9.752;2022-12-07T14:08:44;2.90;99.90
22442;DHT22;11388;54.456;9.752;2022-12-07T14:13:32;2.80;99.90
22442;DHT22;11388;54.456;9.752;2022-12-07T14:16:05;2.90;99.90
22442;DHT22;11388;54.456;9.752;2022-12-07T14:18:43;2.90;99.90
22442;DHT22;11388;54.456;9.752;2022-12-07T14:21:21;2.80;99.90
22442;DHT22;11388;54.456;9.752;2022-12-07T14:24:15;2.80;99.90
22442;DHT22;11388;54.456;9.752;2022-12-07T14:26:47;2.80;99.90
22442;DHT22;11388;54.456;9.752;2022-12-07T14:31:54;2.90;99.90
22442;DHT22;11388;54.456;9.752;2022-12-07T14:34:21;2.90;99.90
22442;DHT22;11388;54.456;9.752;2022-12-07T14:36:47;2.90;99.90
22442;DHT22;11388;54.456;9.752;2022-12-07T14:39:13;2.90;99.90
22442;DHT22;11388;54.456;9.752;2022-12-07T14:41:38;2.80;99.90
22442;DHT22;11388;54.456;9.752;2022-12-07T14:44:17;2.80;99.90
22442;DHT22;11388;54.456;9.752;2022-12-07T14:46:43;2.70;99.90
22442;DHT22;11388;54.456;9.752;2022-12-07T14:49:09;2.60;99.90
22442;DHT22;11388;54.456;9.752;2022-12-07T14:51:37;2.70;99.90
22442;DHT22;11388;54.456;9.752;2022-12-07T14:54:05;2.60;99.90
22442;DHT22;11388;54.456;9.752;2022-12-07T14:56:31;2.70;99.90
22442;DHT22;11388;54.456;9.752;2022-12-07T14:58:57;2.50;99.90
22442;DHT22;11388;54.456;9.752;2022-12-07T15:01:23;2.60;99.90
22442;DHT22;11388;54.456;9.752;2022-12-07T15:03:49;2.50;99.90
22442;DHT22;11388;54.456;9.752;2022-12-07T15:06:16;2.40;99.90
22442;DHT22;11388;54.456;9.752;2022-12-07T15:08:43;2.50;99.90
22442;DHT22;11388;54.456;9.752;2022-12-07T15:11:13;2.50;99.90
22442;DHT22;11388;54.456;9.752;2022-12-07T15:13:39;2.50;99.90
22442;DHT22;11388;54.456;9.752;2022-12-07T15:16:24;2.60;99.90
22442;DHT22;11388;54.456;9.752;2022-12-07T15:18:50;2.60;99.90
22442;DHT22;11388;54.456;9.752;2022-12-07T15:21:17;2.60;99.90
22442;DHT22;11388;54.456;9.752;2022-12-07T15:23:43;2.50;99.90
22442;DHT22;11388;54.456;9.752;2022-12-07T15:26:11;2.50;99.90
22442;DHT22;11388;54.456;9.752;2022-12-07T15:28:37;2.60;99.90
22442;DHT22;11388;54.456;9.752;2022-12-07T15:31:05;2.50;99.90
22442;DHT22;11388;54.456;9.752;2022-12-07T15:33:35;2.60;99.90
22442;DHT22;11388;54.456;9.752;2022-12-07T15:36:01;2.60;99.90
22442;DHT22;11388;54.456;9.752;2022-12-07T15:38:27;2.50;99.90
22442;DHT22;11388;54.456;9.752;2022-12-07T15:41:02;2.40;99.90
22442;DHT22;11388;54.456;9.752;2022-12-07T15:43:27;2.40;99.90
22442;DHT22;11388;54.456;9.752;2022-12-07T15:46:11;2.40;99.90
22442;DHT22;11388;54.456;9.752;2022-12-07T15:48:37;2.40;99.90
22442;DHT22;11388;54.456;9.752;2022-12-07T15:51:06;2.40;99.90
22442;DHT22;11388;54.456;9.752;2022-12-07T15:53:36;2.40;99.90
22442;DHT22;11388;54.456;9.752;2022-12-07T15:56:06;2.40;99.90
22442;DHT22;11388;54.456;9.752;2022-12-07T15:58:32;2.30;99.90
22442;DHT22;11388;54.456;9.752;2022-12-07T16:00:58;2.30;99.90
22442;DHT22;11388;54.456;9.752;2022-12-07T16:03:24;2.30;99.90
22442;DHT22;11388;54.456;9.752;2022-12-07T16:05:50;2.30;99.90
22442;DHT22;11388;54.456;9.752;2022-12-07T16:08:16;2.30;99.90
22442;DHT22;11388;54.456;9.752;2022-12-07T16:10:42;2.30;99.90
22442;DHT22;11388;54.456;9.752;2022-12-07T16:13:09;2.30;99.90
22442;DHT22;11388;54.456;9.752;2022-12-07T16:15:39;2.30;99.90
22442;DHT22;11388;54.456;9.752;2022-12-07T16:18:05;2.30;99.90
22442;DHT22;11388;54.456;9.752;2022-12-07T16:20:31;2.30;99.90
22442;DHT22;11388;54.456;9.752;2022-12-07T16:22:57;2.20;99.90
22442;DHT22;11388;54.456;9.752;2022-12-07T16:25:26;2.20;99.90
22442;DHT22;11388;54.456;9.752;2022-12-07T16:28:10;2.10;99.90
22442;DHT22;11388;54.456;9.752;2022-12-07T16:30:36;2.10;99.90
22442;DHT22;11388;54.456;9.752;2022-12-07T16:33:01;2.10;99.90
22442;DHT22;11388;54.456;9.752;2022-12-07T16:35:27;2.10;99.90
22442;DHT22;11388;54.456;9.752;2022-12-07T16:37:56;2.10;99.90
22442;DHT22;11388;54.456;9.752;2022-12-07T16:40:21;2.20;99.90
22442;DHT22;11388;54.456;9.752;2022-12-07T16:42:47;2.10;99.90
22442;DHT22;11388;54.456;9.752;2022-12-07T16:45:13;2.00;99.90
22442;DHT22;11388;54.456;9.752;2022-12-07T16:47:39;2.10;99.90
22442;DHT22;11388;54.456;9.752;2022-12-07T16:50:05;2.10;99.90
22442;DHT22;11388;54.456;9.752;2022-12-07T16:52:33;2.00;99.90
22442;DHT22;11388;54.456;9.752;2022-12-07T16:54:59;1.80;99.90
22442;DHT22;11388;54.456;9.752;2022-12-07T16:57:24;1.70;99.90
22442;DHT22;11388;54.456;9.752;2022-12-07T16:59:51;1.90;99.90
22442;DHT22;11388;54.456;9.752;2022-12-07T17:02:17;1.90;99.90
22442;DHT22;11388;54.456;9.752;2022-12-07T17:04:43;2.00;99.90
22442;DHT22;11388;54.456;9.752;2022-12-07T17:07:09;1.90;99.90
22442;DHT22;11388;54.456;9.752;2022-12-07T17:09:36;1.90;99.90
22442;DHT22;11388;54.456;9.752;2022-12-07T17:12:02;1.90;99.90
22442;DHT22;11388;54.456;9.752;2022-12-07T17:14:27;1.90;99.90
22442;DHT22;11388;54.456;9.752;2022-12-07T17:17:15;2.00;99.90
22442;DHT22;11388;54.456;9.752;2022-12-07T17:19:41;2.00;99.90
22442;DHT22;11388;54.456;9.752;2022-12-07T17:22:07;2.10;99.90
22442;DHT22;11388;54.456;9.752;2022-12-07T17:24:33;2.10;99.90
22442;DHT22;11388;54.456;9.752;2022-12-07T17:26:59;2.10;99.90
22442;DHT22;11388;54.456;9.752;2022-12-07T17:29:25;2.00;99.90
22442;DHT22;11388;54.456;9.752;2022-12-07T17:31:50;2.00;99.90
22442;DHT22;11388;54.456;9.752;2022-12-07T17:34:16;1.90;99.90
22442;DHT22;11388;54.456;9.752;2022-12-07T17:36:42;1.90;99.90
22442;DHT22;11388;54.456;9.752;2022-12-07T17:39:16;2.00;99.90
22442;DHT22;11388;54.456;9.752;2022-12-07T17:41:45;1.90;99.90
22442;DHT22;11388;54.456;9.752;2022-12-07T17:44:37;1.90;99.90
22442;DHT22;11388;54.456;9.752;2022-12-07T17:47:03;2.00;99.90
22442;DHT22;11388;54.456;9.752;2022-12-07T17:49:30;2.00;99.90
22442;DHT22;11388;54.456;9.752;2022-12-07T17:51:56;2.10;99.90
22442;DHT22;11388;54.456;9.752;2022-12-07T17:54:40;2.20;99.90
22442;DHT22;11388;54.456;9.752;2022-12-07T17:57:06;2.30;99.90
22442;DHT22;11388;54.456;9.752;2022-12-07T17:59:32;2.30;99.90
22442;DHT22;11388;54.456;9.752;2022-12-07T18:01:58;2.20;99.90
22442;DHT22;11388;54.456;9.752;2022-12-07T18:04:23;2.30;99.90
22442;DHT22;11388;54.456;9.752;2022-12-07T18:06:49;2.30;99.90
22442;DHT22;11388;54.456;9.752;2022-12-07T18:09:15;2.20;99.90
22442;DHT22;11388;54.456;9.752;2022-12-07T18:11:41;2.20;99.90
22442;DHT22;11388;54.456;9.752;2022-12-07T18:14:06;2.20;99.90
22442;DHT22;11388;54.456;9.752;2022-12-07T18:16:32;2.10;99.90
22442;DHT22;11388;54.456;9.752;2022-12-07T18:19:02;2.10;99.90
22442;DHT22;11388;54.456;9.752;2022-12-07T18:21:30;1.90;99.90
22442;DHT22;11388;54.456;9.752;2022-12-07T18:23:58;1.90;99.90
22442;DHT22;11388;54.456;9.752;2022-12-07T18:26:26;1.90;99.90
22442;DHT22;11388;54.456;9.752;2022-12-07T18:28:52;1.90;99.90
22442;DHT22;11388;54.456;9.752;2022-12-07T18:31:18;2.00;99.90
22442;DHT22;11388;54.456;9.752;2022-12-07T18:33:45;1.90;99.90
22442;DHT22;11388;54.456;9.752;2022-12-07T18:36:14;2.00;99.90
22442;DHT22;11388;54.456;9.752;2022-12-07T18:38:40;2.10;99.90
22442;DHT22;11388;54.456;9.752;2022-12-07T18:41:13;2.10;99.90
22442;DHT22;11388;54.456;9.752;2022-12-07T18:43:39;2.10;99.90
22442;DHT22;11388;54.456;9.752;2022-12-07T18:46:19;2.20;99.90
22442;DHT22;11388;54.456;9.752;2022-12-07T18:48:45;2.20;99.90
22442;DHT22;11388;54.456;9.752;2022-12-07T18:51:13;2.00;99.90
22442;DHT22;11388;54.456;9.752;2022-12-07T18:53:39;2.00;99.90
22442;DHT22;11388;54.456;9.752;2022-12-07T18:58:32;1.90;99.90
22442;DHT22;11388;54.456;9.752;2022-12-07T19:00:58;2.00;99.90
22442;DHT22;11388;54.456;9.752;2022-12-07T19:03:24;2.10;99.90
22442;DHT22;11388;54.456;9.752;2022-12-07T19:05:50;2.10;99.90
22442;DHT22;11388;54.456;9.752;2022-12-07T19:08:15;2.00;99.90
22442;DHT22;11388;54.456;9.752;2022-12-07T19:10:41;2.10;99.90
22442;DHT22;11388;54.456;9.752;2022-12-07T19:13:07;2.20;99.90
22442;DHT22;11388;54.456;9.752;2022-12-07T19:15:32;2.20;99.90
22442;DHT22;11388;54.456;9.752;2022-12-07T19:17:58;2.10;99.90
22442;DHT22;11388;54.456;9.752;2022-12-07T19:20:24;2.00;99.90
22442;DHT22;11388;54.456;9.752;2022-12-07T19:22:49;2.00;99.90
22442;DHT22;11388;54.456;9.752;2022-12-07T19:25:15;2.10;99.90
22442;DHT22;11388;54.456;9.752;2022-12-07T19:27:41;2.00;99.90
22442;DHT22;11388;54.456;9.752;2022-12-07T19:30:07;2.00;99.90
22442;DHT22;11388;54.456;9.752;2022-12-07T19:32:35;2.00;99.90
22442;DHT22;11388;54.456;9.752;2022-12-07T19:35:04;2.20;99.90
22442;DHT22;11388;54.456;9.752;2022-12-07T19:37:30;2.20;99.90
22442;DHT22;11388;54.456;9.752;2022-12-07T19:39:56;2.20;99.90
22442;DHT22;11388;54.456;9.752;2022-12-07T19:42:22;2.20;99.90
22442;DHT22;11388;54.456;9.752;2022-12-07T19:44:48;2.30;99.90
22442;DHT22;11388;54.456;9.752;2022-12-07T19:47:14;2.30;99.90
22442;DHT22;11388;54.456;9.752;2022-12-07T19:49:43;2.40;99.90
22442;DHT22;11388;54.456;9.752;2022-12-07T19:52:11;2.40;99.90
22442;DHT22;11388;54.456;9.752;2022-12-07T19:54:38;2.40;99.90
22442;DHT22;11388;54.456;9.752;2022-12-07T19:57:05;2.40;99.90
22442;DHT22;11388;54.456;9.752;2022-12-07T19:59:32;2.40;99.90
22442;DHT22;11388;54.456;9.752;2022-12-07T20:01:58;2.40;99.90
22442;DHT22;11388;54.456;9.752;2022-12-07T20:04:29;2.50;99.90
22442;DHT22;11388;54.456;9.752;2022-12-07T20:06:57;2.40;99.90
22442;DHT22;11388;54.456;9.752;2022-12-07T20:09:24;2.30;99.90
22442;DHT22;11388;54.456;9.752;2022-12-07T20:11:50;2.30;99.90
22442;DHT22;11388;54.456;9.752;2022-12-07T20:14:34;2.40;99.90
22442;DHT22;11388;54.456;9.752;2022-12-07T20:17:00;2.30;99.90
22442;DHT22;11388;54.456;9.752;2022-12-07T20:19:29;2.30;99.90
22442;DHT22;11388;54.456;9.752;2022-12-07T20:21:55;2.30;99.90
22442;DHT22;11388;54.456;9.752;2022-12-07T20:24:24;2.30;99.90
22442;DHT22;11388;54.456;9.752;2022-12-07T20:26:51;2.30;99.90
22442;DHT22;11388;54.456;9.752;2022-12-07T20:29:19;2.40;99.90
22442;DHT22;11388;54.456;9.752;2022-12-07T20:31:46;2.40;99.90
22442;DHT22;11388;54.456;9.752;2022-12-07T20:34:13;2.50;99.90
22442;DHT22;11388;54.456;9.752;2022-12-07T20:36:39;2.30;99.90
22442;DHT22;11388;54.456;9.752;2022-12-07T20:39:06;2.10;99.90
22442;DHT22;11388;54.456;9.752;2022-12-07T20:41:33;2.10;99.90
22442;DHT22;11388;54.456;9.752;2022-12-07T20:44:17;2.30;99.90
22442;DHT22;11388;54.456;9.752;2022-12-07T20:46:44;2.10;99.90
22442;DHT22;11388;54.456;9.752;2022-12-07T20:49:11;2.00;99.90
22442;DHT22;11388;54.456;9.752;2022-12-07T20:51:38;2.00;99.90
22442;DHT22;11388;54.456;9.752;2022-12-07T20:54:04;2.20;99.90
22442;DHT22;11388;54.456;9.752;2022-12-07T20:56:30;2.20;99.90
22442;DHT22;11388;54.456;9.752;2022-12-07T20:58:59;2.10;99.90
22442;DHT22;11388;54.456;9.752;2022-12-07T21:01:26;2.00;99.90
22442;DHT22;11388;54.456;9.752;2022-12-07T21:03:56;2.00;99.90